Time;durP1;ratioP1;P1;durP2;ratioP2;P2;SDS_P1;SDS_P2;PMS_P1;PMS_P2;Temp;Humidity;BMP_temperature;BMP_pressure;BME280_temperature;BME280_humidity;BME280_pressure;Samples;Min_cycle;Max_cycle;Signal;HPM_P1;HPM_P2
2022/04/19 00:01:30;0.00;0.00;0.62;0.00;0.00;0.62;1.73;1.17;;;27.90;20.90;;;;;;2256342;61;20508;-71
2022/04/19 00:04:19;0.00;0.00;0.62;0.00;0.00;0.62;1.90;1.33;;;27.90;20.90;;;;;;2256042;61;20462;-68
2022/04/19 00:07:06;0.00;0.00;0.62;0.00;0.00;0.62;1.70;1.20;;;27.90;20.90;;;;;;2253780;61;20412;-66
2022/04/19 00:09:50;0.00;0.00;0.62;0.00;0.00;0.62;1.80;1.17;;;27.90;20.90;;;;;;2256106;61;20393;-72
2022/04/19 00:12:35;0.00;0.00;0.62;0.00;0.00;0.62;1.53;1.20;;;27.90;20.90;;;;;;2256107;61;20393;-70
2022/04/19 00:15:21;0.00;0.00;0.62;0.00;0.00;0.62;1.70;1.17;;;27.90;21.00;;;;;;2256788;61;20357;-61
2022/04/19 00:18:08;0.00;0.00;0.62;0.00;0.00;0.62;3.40;1.33;;;27.90;21.20;;;;;;2256541;61;20389;-66
2022/04/19 00:20:54;0.00;0.00;0.62;0.00;0.00;0.62;1.83;1.57;;;27.90;20.90;;;;;;2256206;61;20421;-65
2022/04/19 00:23:39;0.00;0.00;0.62;0.00;0.00;0.62;1.93;1.27;;;27.90;20.90;;;;;;2256073;61;20458;-64
2022/04/19 00:26:24;0.00;0.00;0.62;0.00;0.00;0.62;1.53;1.10;;;27.90;21.40;;;;;;2255838;61;20644;-65
2022/04/19 00:29:08;0.00;0.00;0.62;0.00;0.00;0.62;2.10;1.40;;;27.90;20.90;;;;;;2256149;61;20366;-65
2022/04/19 00:31:53;0.00;0.00;0.62;0.00;0.00;0.62;1.70;1.27;;;27.90;20.90;;;;;;2256362;61;20470;-65
2022/04/19 00:34:38;0.00;0.00;0.62;0.00;0.00;0.62;1.70;1.07;;;27.90;20.90;;;;;;2252371;61;20365;-65
2022/04/19 00:37:24;0.00;0.00;0.62;0.00;0.00;0.62;2.13;1.20;;;27.90;20.90;;;;;;2252840;61;20964;-65
2022/04/19 00:40:10;0.00;0.00;0.62;0.00;0.00;0.62;1.83;1.20;;;27.90;20.90;;;;;;2252935;61;20365;-64
2022/04/19 00:42:54;0.00;0.00;0.62;0.00;0.00;0.62;2.67;1.40;;;27.90;20.90;;;;;;2256042;61;20373;-67
2022/04/19 00:45:39;0.00;0.00;0.62;0.00;0.00;0.62;2.13;1.60;;;27.90;20.80;;;;;;2256223;61;20442;-60
2022/04/19 00:48:24;0.00;0.00;0.62;0.00;0.00;0.62;2.17;1.77;;;27.90;20.70;;;;;;2255545;61;20365;-63
2022/04/19 00:51:11;0.00;0.00;0.62;0.00;0.00;0.62;2.10;1.70;;;27.90;20.60;;;;;;2253162;61;20429;-61
2022/04/19 00:53:58;0.00;0.00;0.62;0.00;0.00;0.62;2.70;1.93;;;27.80;20.40;;;;;;2253132;61;20412;-63
2022/04/19 00:56:45;0.00;0.00;0.62;0.00;0.00;0.62;2.00;1.63;;;27.90;20.30;;;;;;2252318;61;20390;-63
2022/04/19 00:59:32;0.00;0.00;0.62;0.00;0.00;0.62;1.93;1.53;;;27.80;20.20;;;;;;2252621;61;20366;-63
2022/04/19 01:02:17;0.00;0.00;0.62;0.00;0.00;0.62;2.20;1.80;;;27.80;20.20;;;;;;2256426;61;20385;-60
2022/04/19 01:05:02;0.00;0.00;0.62;0.00;0.00;0.62;2.60;1.93;;;27.80;20.10;;;;;;2252354;61;20377;-63
2022/04/19 01:07:47;0.00;0.00;0.62;0.00;0.00;0.62;2.40;2.10;;;27.80;20.10;;;;;;2255964;61;20426;-61
2022/04/19 01:10:37;0.00;0.00;0.62;0.00;0.00;0.62;2.80;2.10;;;27.80;20.00;;;;;;2252390;61;20964;-65
2022/04/19 01:13:22;0.00;0.00;0.62;0.00;0.00;0.62;2.50;1.57;;;27.70;20.00;;;;;;2253198;61;20409;-62
2022/04/19 01:16:16;0.00;0.00;0.62;0.00;0.00;0.62;2.20;1.73;;;27.70;20.50;;;;;;2253207;61;20361;-63
2022/04/19 01:19:03;0.00;0.00;0.62;0.00;0.00;0.62;2.23;1.90;;;27.70;19.90;;;;;;2251740;61;20420;-61
2022/04/19 01:21:50;0.00;0.00;0.62;0.00;0.00;0.62;2.10;1.60;;;27.60;19.80;;;;;;2256052;61;20389;-62
2022/04/19 01:24:47;0.00;0.00;0.62;0.00;0.00;0.62;2.27;1.70;;;27.60;19.80;;;;;;2253147;61;20362;-62
2022/04/19 01:27:34;0.00;0.00;0.62;0.00;0.00;0.62;2.00;1.80;;;27.50;19.80;;;;;;2252889;61;20405;-63
2022/04/19 01:30:18;0.00;0.00;0.62;0.00;0.00;0.62;2.57;2.17;;;27.50;19.70;;;;;;2255706;61;20520;-62
2022/04/19 01:33:06;0.00;0.00;0.62;0.00;0.00;0.62;2.57;2.10;;;27.50;19.70;;;;;;2252316;61;20526;-63
2022/04/19 01:35:51;0.00;0.00;0.62;0.00;0.00;0.62;2.53;2.13;;;27.50;19.70;;;;;;2256375;61;20369;-63
2022/04/19 01:38:37;0.00;0.00;0.62;0.00;0.00;0.62;2.63;2.20;;;27.40;19.60;;;;;;2252796;61;20394;-63
2022/04/19 01:41:22;0.00;0.00;0.62;0.00;0.00;0.62;2.97;2.03;;;27.40;19.60;;;;;;2252047;61;20393;-61
2022/04/19 01:44:09;0.00;0.00;0.62;0.00;0.00;0.62;2.90;2.30;;;27.40;19.60;;;;;;2252746;61;20370;-63
2022/04/19 01:46:54;0.00;0.00;0.62;0.00;0.00;0.62;2.40;2.10;;;27.30;19.50;;;;;;2253105;61;20382;-62
2022/04/19 01:49:38;0.00;0.00;0.62;0.00;0.00;0.62;2.23;1.90;;;27.30;19.60;;;;;;2255623;61;20424;-62
2022/04/19 01:52:23;0.00;0.00;0.62;0.00;0.00;0.62;1.83;1.67;;;27.30;20.20;;;;;;2252949;61;20366;-63
2022/04/19 01:55:14;0.00;0.00;0.62;0.00;0.00;0.62;2.97;2.30;;;27.20;19.60;;;;;;2252480;61;20370;-62
2022/04/19 01:57:59;0.00;0.00;0.62;0.00;0.00;0.62;2.70;2.10;;;27.20;19.60;;;;;;2252807;61;20432;-64
2022/04/19 02:00:52;0.00;0.00;0.62;0.00;0.00;0.62;2.47;2.23;;;27.20;19.60;;;;;;2250574;61;20937;-60
2022/04/19 02:03:39;0.00;0.00;0.62;0.00;0.00;0.62;2.83;2.40;;;27.20;19.60;;;;;;2252159;61;20453;-60
2022/04/19 02:06:26;0.00;0.00;0.62;0.00;0.00;0.62;2.87;2.07;;;27.10;19.50;;;;;;2252698;61;20362;-62
2022/04/19 02:09:12;0.00;0.00;0.62;0.00;0.00;0.62;2.70;2.23;;;27.10;19.60;;;;;;2256020;61;20494;-62
2022/04/19 02:11:58;0.00;0.00;0.62;0.00;0.00;0.62;2.57;2.30;;;27.00;19.50;;;;;;2252212;61;20445;-62
2022/04/19 02:15:05;0.00;0.00;0.62;0.00;0.00;0.62;3.53;2.47;;;27.00;19.50;;;;;;2252600;61;21294;-65
2022/04/19 02:17:50;0.00;0.00;0.62;0.00;0.00;0.62;3.20;2.90;;;27.00;19.50;;;;;;2251805;61;20794;-64
2022/04/19 02:20:35;0.00;0.00;0.62;0.00;0.00;0.62;3.40;2.43;;;26.90;19.50;;;;;;2252730;61;20393;-61
2022/04/19 02:23:19;0.00;0.00;0.62;0.00;0.00;0.62;2.43;2.00;;;26.90;19.50;;;;;;2253106;61;20401;-63
2022/04/19 02:26:04;0.00;0.00;0.62;0.00;0.00;0.62;2.60;2.30;;;26.90;19.50;;;;;;2251990;61;20360;-62
2022/04/19 02:28:51;0.00;0.00;0.62;0.00;0.00;0.62;3.50;2.53;;;26.80;19.40;;;;;;2255485;61;20362;-62
2022/04/19 02:31:41;0.00;0.00;0.62;0.00;0.00;0.62;3.30;2.80;;;26.80;19.50;;;;;;2252505;61;20390;-61
2022/04/19 02:34:26;0.00;0.00;0.62;0.00;0.00;0.62;3.03;2.73;;;26.80;19.50;;;;;;2255858;61;20766;-64
2022/04/19 02:37:11;0.00;0.00;0.62;0.00;0.00;0.62;2.33;2.13;;;26.80;19.50;;;;;;2252503;61;20362;-62
2022/04/19 02:39:56;0.00;0.00;0.62;0.00;0.00;0.62;2.00;1.80;;;26.70;19.40;;;;;;2251659;61;20365;-62
2022/04/19 02:42:41;0.00;0.00;0.62;0.00;0.00;0.62;2.77;2.33;;;26.70;19.50;;;;;;2256157;61;20370;-60
2022/04/19 02:45:27;0.00;0.00;0.62;0.00;0.00;0.62;2.30;2.03;;;26.70;19.50;;;;;;2253127;61;20944;-62
2022/04/19 02:48:12;0.00;0.00;0.62;0.00;0.00;0.62;2.77;2.47;;;26.60;19.40;;;;;;2251357;61;20378;-64
2022/04/19 02:51:02;0.00;0.00;0.62;0.00;0.00;0.62;2.77;2.33;;;26.60;20.00;;;;;;2252659;61;20392;-62
2022/04/19 02:53:46;0.00;0.00;0.62;0.00;0.00;0.62;2.47;2.27;;;26.60;19.40;;;;;;2252594;61;20381;-62
2022/04/19 02:56:31;0.00;0.00;0.62;0.00;0.00;0.62;2.97;2.30;;;26.60;19.40;;;;;;2255588;61;20369;-62
2022/04/19 02:59:16;0.00;0.00;0.62;0.00;0.00;0.62;2.20;2.00;;;26.50;19.40;;;;;;2252141;61;20389;-62
2022/04/19 03:02:02;0.00;0.00;0.62;0.00;0.00;0.62;2.40;2.20;;;26.50;20.00;;;;;;2252121;61;20413;-63
2022/04/19 03:04:48;0.00;0.00;0.62;0.00;0.00;0.62;2.50;2.20;;;26.50;19.50;;;;;;2252794;61;20462;-61
2022/04/19 03:07:33;0.00;0.00;0.62;0.00;0.00;0.62;3.20;2.57;;;26.40;19.50;;;;;;2252852;61;20397;-63
2022/04/19 03:10:17;0.00;0.00;0.62;0.00;0.00;0.62;3.07;2.63;;;26.40;19.50;;;;;;2255205;61;20362;-61
2022/04/19 03:13:02;0.00;0.00;0.62;0.00;0.00;0.62;2.73;2.43;;;26.40;19.60;;;;;;2253968;61;20939;-62
2022/04/19 03:15:52;0.00;0.00;0.62;0.00;0.00;0.62;3.07;2.30;;;26.30;19.60;;;;;;2256011;61;20362;-64
2022/04/19 03:18:39;0.00;0.00;0.62;0.00;0.00;0.62;2.40;2.20;;;26.30;19.70;;;;;;2254732;61;20443;-64
2022/04/19 03:21:24;0.00;0.00;0.62;0.00;0.00;0.62;2.60;2.17;;;26.30;19.70;;;;;;2255159;61;20385;-61
2022/04/19 03:30:16;0.00;0.00;0.62;0.00;0.00;0.62;2.33;2.13;;;26.20;19.60;;;;;;2259086;61;20385;-60
2022/04/19 03:33:01;0.00;0.00;0.62;0.00;0.00;0.62;2.70;2.27;;;26.20;19.60;;;;;;2254935;61;20370;-66
2022/04/19 03:35:48;0.00;0.00;0.62;0.00;0.00;0.62;2.70;2.20;;;26.20;19.70;;;;;;2256134;61;20435;-65
2022/04/19 03:38:34;0.00;0.00;0.62;0.00;0.00;0.62;3.87;1.93;;;26.20;19.70;;;;;;2254959;61;20386;-63
2022/04/19 03:41:38;0.00;0.00;0.62;0.00;0.00;0.62;2.43;2.23;;;26.20;19.80;;;;;;2256047;61;20831;-64
2022/04/19 03:44:25;0.00;0.00;0.62;0.00;0.00;0.62;3.67;2.30;;;26.10;19.70;;;;;;2255715;61;20365;-65
2022/04/19 03:47:10;0.00;0.00;0.62;0.00;0.00;0.62;2.57;2.30;;;26.10;19.70;;;;;;2254688;61;20369;-64
2022/04/19 03:49:55;0.00;0.00;0.62;0.00;0.00;0.62;2.97;2.40;;;26.00;19.70;;;;;;2254980;61;20385;-63
2022/04/19 03:52:42;0.00;0.00;0.62;0.00;0.00;0.62;3.13;2.50;;;26.00;19.70;;;;;;2259480;61;20362;-63
2022/04/19 03:55:27;0.00;0.00;0.62;0.00;0.00;0.62;2.60;2.40;;;26.00;19.70;;;;;;2255328;61;20436;-61
2022/04/19 03:58:12;0.00;0.00;0.62;0.00;0.00;0.62;2.97;2.67;;;26.00;19.70;;;;;;2255543;61;20925;-63
2022/04/19 04:00:56;0.00;0.00;0.62;0.00;0.00;0.62;2.30;2.10;;;26.00;19.70;;;;;;2255790;61;20937;-64
2022/04/19 04:03:41;0.00;0.00;0.62;0.00;0.00;0.62;2.40;1.90;;;26.00;19.70;;;;;;2475394;53;20367;-64
2022/04/19 04:06:27;0.00;0.00;0.62;0.00;0.00;0.62;2.40;2.20;;;25.90;19.60;;;;;;2254961;61;20524;-64
2022/04/19 04:09:13;0.00;0.00;0.62;0.00;0.00;0.62;4.37;2.33;;;25.90;19.70;;;;;;2251425;61;20820;-63
2022/04/19 04:12:02;0.00;0.00;0.62;0.00;0.00;0.62;2.67;2.27;;;25.90;19.70;;;;;;2255424;61;20939;-62
2022/04/19 04:14:46;0.00;0.00;0.62;0.00;0.00;0.62;2.90;2.23;;;25.80;19.70;;;;;;2255476;61;20394;-63
2022/04/19 04:17:31;0.00;0.00;0.62;0.00;0.00;0.62;2.83;2.40;;;25.80;19.70;;;;;;2254970;61;20370;-65
2022/04/19 04:20:16;0.00;0.00;0.62;0.00;0.00;0.62;2.30;2.10;;;25.80;19.70;;;;;;2254787;61;20395;-63
2022/04/19 04:23:01;0.00;0.00;0.62;0.00;0.00;0.62;2.40;1.90;;;25.80;19.70;;;;;;2254508;61;20362;-64
2022/04/19 04:25:47;0.00;0.00;0.62;0.00;0.00;0.62;2.60;2.33;;;25.70;19.60;;;;;;2255556;61;20417;-61
2022/04/19 04:28:34;0.00;0.00;0.62;0.00;0.00;0.62;3.00;2.50;;;25.70;19.60;;;;;;2249249;61;20359;-62
2022/04/19 04:31:18;0.00;0.00;0.62;0.00;0.00;0.62;2.17;1.93;;;25.70;19.60;;;;;;2254720;61;20406;-64
2022/04/19 04:34:03;0.00;0.00;0.62;0.00;0.00;0.62;3.00;2.50;;;25.70;19.60;;;;;;2252107;61;20457;-61
2022/04/19 04:36:48;0.00;0.00;0.62;0.00;0.00;0.62;2.90;2.00;;;25.70;19.60;;;;;;2255019;61;20402;-62
2022/04/19 04:39:36;0.00;0.00;0.62;0.00;0.00;0.62;2.33;2.00;;;25.60;19.60;;;;;;2253560;61;20386;-65
2022/04/19 04:42:42;0.00;0.00;0.62;0.00;0.00;0.62;2.80;1.97;;;25.60;19.60;;;;;;2251592;61;20769;-61
2022/04/19 04:45:30;0.00;0.00;0.62;0.00;0.00;0.62;3.23;2.10;;;25.60;19.60;;;;;;2665151;46;20362;-65
2022/04/19 04:51:18;0.00;0.00;0.62;0.00;0.00;0.62;4.33;2.10;;;25.50;19.60;;;;;;2249230;61;20518;-64
2022/04/19 04:54:03;0.00;0.00;0.62;0.00;0.00;0.62;2.43;2.00;;;25.50;19.60;;;;;;2251035;61;20367;-65
2022/04/19 04:56:49;0.00;0.00;0.62;0.00;0.00;0.62;2.67;1.93;;;25.50;20.20;;;;;;2251770;61;20891;-63
2022/04/19 04:59:36;0.00;0.00;0.62;0.00;0.00;0.62;3.00;2.20;;;25.50;19.60;;;;;;2251679;61;20390;-65
2022/04/19 05:02:23;0.00;0.00;0.62;0.00;0.00;0.62;2.20;2.00;;;25.40;19.60;;;;;;2249582;61;20995;-63
2022/04/19 05:05:08;0.00;0.00;0.62;0.00;0.00;0.62;2.07;1.87;;;25.40;19.60;;;;;;2249153;61;20386;-60
2022/04/19 05:07:53;0.00;0.00;0.62;0.00;0.00;0.62;2.60;2.07;;;25.40;19.60;;;;;;2250940;61;20371;-55
2022/04/19 05:10:37;0.00;0.00;0.62;0.00;0.00;0.62;2.80;2.20;;;25.40;19.60;;;;;;2252481;61;20383;-55
2022/04/19 05:13:28;0.00;0.00;0.62;0.00;0.00;0.62;2.50;2.10;;;25.40;19.50;;;;;;2252316;61;20394;-58
2022/04/19 05:16:14;0.00;0.00;0.62;0.00;0.00;0.62;2.50;2.20;;;25.40;19.50;;;;;;2252120;61;20474;-61
2022/04/19 05:18:59;0.00;0.00;0.62;0.00;0.00;0.62;2.50;2.30;;;25.30;19.40;;;;;;2251794;61;20433;-61
2022/04/19 05:21:44;0.00;0.00;0.62;0.00;0.00;0.62;3.73;2.63;;;25.30;19.40;;;;;;2253519;61;20413;-63
2022/04/19 05:24:30;0.00;0.00;0.62;0.00;0.00;0.62;3.03;2.20;;;25.30;19.50;;;;;;2488911;53;20777;-70
2022/04/19 05:27:15;0.00;0.00;0.62;0.00;0.00;0.62;3.07;2.30;;;25.30;19.50;;;;;;2252052;61;20943;-70
2022/04/19 05:30:03;0.00;0.00;0.62;0.00;0.00;0.62;3.30;2.07;;;25.20;19.50;;;;;;2251312;61;20895;-69
2022/04/19 05:32:49;0.00;0.00;0.62;0.00;0.00;0.62;3.23;2.23;;;25.20;19.60;;;;;;2251979;61;20371;-67
2022/04/19 05:35:34;0.00;0.00;0.62;0.00;0.00;0.62;3.00;2.43;;;25.20;19.70;;;;;;2252583;61;20457;-70
2022/04/19 05:38:20;0.00;0.00;0.62;0.00;0.00;0.62;3.40;1.90;;;25.20;19.70;;;;;;2248058;61;20417;-67
2022/04/19 05:41:05;0.00;0.00;0.62;0.00;0.00;0.62;2.50;2.00;;;25.10;19.70;;;;;;2251694;61;20382;-63
2022/04/19 05:43:50;0.00;0.00;0.62;0.00;0.00;0.62;2.70;2.20;;;25.10;19.70;;;;;;2249598;61;20406;-59
2022/04/19 05:46:36;0.00;0.00;0.62;0.00;0.00;0.62;2.07;1.87;;;25.10;19.70;;;;;;2249663;61;20378;-64
2022/04/19 05:49:22;0.00;0.00;0.62;0.00;0.00;0.62;2.60;2.40;;;25.10;19.80;;;;;;2250753;61;20371;-68
2022/04/19 05:52:10;0.00;0.00;0.62;0.00;0.00;0.62;2.80;2.40;;;25.10;19.80;;;;;;2248404;61;20386;-67
2022/04/19 05:54:54;0.00;0.00;0.62;0.00;0.00;0.62;2.60;2.27;;;25.10;19.80;;;;;;2249272;61;20938;-63
2022/04/19 05:57:39;0.00;0.00;0.62;0.00;0.00;0.62;2.17;1.80;;;25.10;19.90;;;;;;2249118;61;20366;-70
2022/04/19 06:00:23;0.00;0.00;0.62;0.00;0.00;0.62;2.40;2.03;;;25.10;19.90;;;;;;2247963;61;20395;-70
2022/04/19 06:06:14;0.00;0.00;0.62;0.00;0.00;0.62;3.60;2.80;;;25.00;19.80;;;;;;2248784;61;20363;-65
2022/04/19 06:09:01;0.00;0.00;0.62;0.00;0.00;0.62;3.80;2.70;;;25.00;19.80;;;;;;2248744;61;20399;-62
2022/04/19 06:11:46;0.00;0.00;0.62;0.00;0.00;0.62;2.93;2.63;;;25.00;19.80;;;;;;2248891;61;20446;-61
2022/04/19 06:14:31;0.00;0.00;0.62;0.00;0.00;0.62;4.10;3.20;;;25.00;20.20;;;;;;2248204;61;20820;-64
2022/04/19 06:17:17;0.00;0.00;0.62;0.00;0.00;0.62;3.87;3.20;;;25.00;19.70;;;;;;2249434;61;20371;-62
2022/04/19 06:20:04;0.00;0.00;0.62;0.00;0.00;0.62;3.90;3.40;;;25.00;19.70;;;;;;2248767;61;20518;-63
2022/04/19 06:22:50;0.00;0.00;0.62;0.00;0.00;0.62;3.40;2.80;;;25.00;19.70;;;;;;2248077;61;20363;-72
2022/04/19 06:25:36;0.00;0.00;0.62;0.00;0.00;0.62;3.60;3.20;;;25.00;19.80;;;;;;2249117;61;20375;-71
2022/04/19 06:28:21;0.00;0.00;0.62;0.00;0.00;0.62;6.40;3.20;;;25.00;19.80;;;;;;2248566;61;20974;-65
2022/04/19 06:31:35;0.00;0.00;0.62;0.00;0.00;0.62;3.13;2.67;;;25.00;19.80;;;;;;2251724;61;20872;-62
2022/04/19 06:34:25;0.00;0.00;0.62;0.00;0.00;0.62;4.00;3.13;;;24.90;19.90;;;;;;2249083;61;20387;-68
2022/04/19 06:37:22;0.00;0.00;0.62;0.00;0.00;0.62;3.43;2.67;;;24.90;19.80;;;;;;2251124;61;20363;-64
2022/04/19 06:40:14;0.00;0.00;0.62;0.00;0.00;0.62;3.87;3.00;;;24.90;19.80;;;;;;2248194;61;20398;-59
2022/04/19 06:43:00;0.00;0.00;0.62;0.00;0.00;0.62;3.83;3.40;;;24.90;19.80;;;;;;2248844;61;20366;-59
2022/04/19 06:45:47;0.00;0.00;0.62;0.00;0.00;0.62;4.60;3.73;;;24.90;19.70;;;;;;2247985;61;20406;-58
2022/04/19 06:48:42;0.00;0.00;0.62;0.00;0.00;0.62;4.43;3.50;;;24.90;19.60;;;;;;2248741;61;20895;-57
2022/04/19 06:51:26;0.00;0.00;0.62;0.00;0.00;0.62;4.30;3.30;;;24.90;19.60;;;;;;2249027;61;20394;-61
2022/04/19 06:54:15;0.00;0.00;0.62;0.00;0.00;0.62;4.57;3.43;;;24.90;19.50;;;;;;2249134;61;20371;-71
2022/04/19 06:57:05;0.00;0.00;0.62;0.00;0.00;0.62;4.90;3.70;;;24.90;19.50;;;;;;2252688;61;20393;-65
2022/04/19 06:59:49;0.00;0.00;0.62;0.00;0.00;0.62;5.30;4.13;;;24.90;19.60;;;;;;2248384;61;20456;-63
2022/04/19 07:02:34;0.00;0.00;0.62;0.00;0.00;0.62;4.10;3.43;;;24.90;19.70;;;;;;2248833;61;20447;-63
2022/04/19 07:05:44;0.00;0.00;0.62;0.00;0.00;0.62;5.20;3.67;;;24.90;19.70;;;;;;2251904;61;20378;-65
2022/04/19 07:08:29;0.00;0.00;0.62;0.00;0.00;0.62;4.03;3.63;;;24.80;19.70;;;;;;2248511;61;20410;-64
2022/04/19 07:11:16;0.00;0.00;0.62;0.00;0.00;0.62;4.90;3.13;;;24.80;19.80;;;;;;2249037;61;21177;-66
2022/04/19 07:14:27;0.00;0.00;0.62;0.00;0.00;0.62;4.03;3.63;;;24.80;19.80;;;;;;2248631;61;20967;-63
2022/04/19 07:17:19;0.00;0.00;0.62;0.00;0.00;0.62;3.50;2.87;;;24.80;19.80;;;;;;2252218;61;20919;-71
2022/04/19 07:29:19;0.00;0.00;0.62;0.00;0.00;0.62;3.03;2.20;;;24.80;19.80;;;;;;2248238;61;20354;-68
2022/04/19 07:32:08;0.00;0.00;0.62;0.00;0.00;0.62;3.13;2.73;;;24.80;19.80;;;;;;2248363;61;20394;-64
2022/04/19 07:35:14;0.00;0.00;0.62;0.00;0.00;0.62;2.50;2.20;;;24.80;19.80;;;;;;2249589;61;20371;-64
2022/04/19 07:37:59;0.00;0.00;0.62;0.00;0.00;0.62;2.70;2.13;;;24.80;19.80;;;;;;2249259;61;20445;-66
2022/04/19 07:40:55;0.00;0.00;0.62;0.00;0.00;0.62;2.53;2.27;;;24.90;19.80;;;;;;2249575;61;20482;-67
2022/04/19 07:43:40;0.00;0.00;0.62;0.00;0.00;0.62;2.77;2.30;;;24.90;19.80;;;;;;2246474;61;20409;-67
2022/04/19 07:46:24;0.00;0.00;0.62;0.00;0.00;0.62;2.53;1.90;;;24.80;19.70;;;;;;2249443;61;20440;-62
2022/04/19 07:49:11;0.00;0.00;0.62;0.00;0.00;0.62;2.30;1.80;;;24.80;19.60;;;;;;2252614;61;20893;-62
2022/04/19 07:51:58;0.00;0.00;0.62;0.00;0.00;0.62;2.27;1.93;;;24.90;19.70;;;;;;2246263;61;20923;-63
2022/04/19 07:54:43;0.00;0.00;0.62;0.00;0.00;0.62;3.07;2.40;;;24.90;19.60;;;;;;2249512;61;20425;-64
2022/04/19 07:57:28;0.00;0.00;0.62;0.00;0.00;0.62;2.07;1.83;;;24.90;19.50;;;;;;2249147;61;20367;-63
2022/04/19 08:00:17;0.00;0.00;0.62;0.00;0.00;0.62;2.80;2.00;;;24.90;19.50;;;;;;2249383;61;20900;-63
2022/04/19 08:03:04;0.00;0.00;0.62;0.00;0.00;0.62;2.30;1.80;;;24.90;19.50;;;;;;2249679;61;20478;-63
2022/04/19 08:05:51;0.00;0.00;0.62;0.00;0.00;0.62;3.77;2.13;;;24.90;19.50;;;;;;2249089;61;20366;-64
2022/04/19 08:08:36;0.00;0.00;0.62;0.00;0.00;0.62;2.77;2.00;;;24.90;19.50;;;;;;2249325;61;20450;-63
2022/04/19 08:11:21;0.00;0.00;0.62;0.00;0.00;0.62;2.53;1.77;;;24.90;19.60;;;;;;2252626;61;20382;-64
2022/04/19 08:14:07;0.00;0.00;0.62;0.00;0.00;0.62;2.00;1.63;;;24.90;19.60;;;;;;2248971;61;20398;-63
2022/04/19 08:16:52;0.00;0.00;0.62;0.00;0.00;0.62;2.50;1.70;;;24.90;19.60;;;;;;2249722;61;20367;-62
2022/04/19 08:19:36;0.00;0.00;0.62;0.00;0.00;0.62;2.30;1.77;;;24.90;19.60;;;;;;2252282;61;20786;-63
2022/04/19 08:22:23;0.00;0.00;0.62;0.00;0.00;0.62;2.10;1.70;;;25.00;19.70;;;;;;2254940;61;20470;-63
2022/04/19 08:25:16;0.00;0.00;0.62;0.00;0.00;0.62;1.80;1.50;;;25.00;19.70;;;;;;2257317;61;20365;-64
2022/04/19 08:28:01;0.00;0.00;0.62;0.00;0.00;0.62;2.50;1.40;;;25.00;19.70;;;;;;2257095;61;20403;-64
2022/04/19 08:30:46;0.00;0.00;0.62;0.00;0.00;0.62;2.70;1.47;;;25.00;19.70;;;;;;2257306;61;20515;-62
2022/04/19 08:33:36;0.00;0.00;0.62;0.00;0.00;0.62;3.10;1.80;;;25.00;19.70;;;;;;2257665;61;20377;-63
2022/04/19 08:36:21;0.00;0.00;0.62;0.00;0.00;0.62;1.97;1.70;;;25.00;19.70;;;;;;2257157;61;20445;-62
2022/04/19 08:39:07;0.00;0.00;0.62;0.00;0.00;0.62;1.83;1.47;;;25.00;19.70;;;;;;2260345;61;20492;-62
2022/04/19 08:41:52;0.00;0.00;0.62;0.00;0.00;0.62;1.87;1.53;;;25.00;19.70;;;;;;2257302;61;20385;-63
2022/04/19 08:44:37;0.00;0.00;0.62;0.00;0.00;0.62;2.10;1.60;;;25.00;19.70;;;;;;2257387;61;20972;-62
2022/04/19 08:47:22;0.00;0.00;0.62;0.00;0.00;0.62;1.90;1.50;;;25.10;19.80;;;;;;2257183;61;20357;-63
2022/04/19 08:50:11;0.00;0.00;0.62;0.00;0.00;0.62;2.30;1.73;;;25.10;19.80;;;;;;2259891;61;20454;-63
2022/04/19 08:59:05;0.00;0.00;0.62;0.00;0.00;0.62;2.30;1.73;;;25.10;19.80;;;;;;2260163;61;20797;-63
2022/04/19 09:01:51;0.00;0.00;0.62;0.00;0.00;0.62;2.00;1.30;;;25.10;19.80;;;;;;2260699;61;20959;-61
2022/04/19 09:04:35;0.00;0.00;0.62;0.00;0.00;0.62;1.83;1.37;;;25.10;19.80;;;;;;2260137;61;20837;-63
2022/04/19 09:07:34;0.00;0.00;0.62;0.00;0.00;0.62;1.77;1.43;;;25.10;19.80;;;;;;2260659;61;20370;-63
2022/04/19 09:10:26;0.00;0.00;0.62;0.00;0.00;0.62;2.03;1.73;;;25.10;19.80;;;;;;2260515;61;20407;-62
2022/04/19 09:13:21;0.00;0.00;0.62;0.00;0.00;0.62;2.07;1.47;;;25.10;19.80;;;;;;2260270;61;20438;-63
2022/04/19 09:16:06;0.00;0.00;0.62;0.00;0.00;0.62;1.80;1.40;;;25.10;19.80;;;;;;2260608;61;20370;-63
2022/04/19 09:18:51;0.00;0.00;0.62;0.00;0.00;0.62;1.60;1.20;;;25.20;19.80;;;;;;2260201;61;20444;-63
2022/04/19 09:21:37;0.00;0.00;0.62;0.00;0.00;0.62;1.90;1.43;;;25.20;19.80;;;;;;2260510;61;20443;-63
2022/04/19 09:24:23;0.00;0.00;0.62;0.00;0.00;0.62;2.00;1.30;;;25.20;19.80;;;;;;2260347;61;20410;-61
2022/04/19 09:27:08;0.00;0.00;0.62;0.00;0.00;0.62;1.90;1.33;;;25.20;19.80;;;;;;2259999;61;20411;-63
2022/04/19 09:29:54;0.00;0.00;0.62;0.00;0.00;0.62;1.80;1.33;;;25.20;19.80;;;;;;2260175;61;20372;-67
2022/04/19 09:32:38;0.00;0.00;0.62;0.00;0.00;0.62;2.10;1.33;;;25.20;19.80;;;;;;2260619;61;20785;-63
2022/04/19 09:35:28;0.00;0.00;0.62;0.00;0.00;0.62;1.53;1.30;;;25.20;19.80;;;;;;2260422;61;20775;-63
2022/04/19 09:38:14;0.00;0.00;0.62;0.00;0.00;0.62;1.73;1.40;;;25.20;19.80;;;;;;2259988;61;20377;-63
2022/04/19 09:40:58;0.00;0.00;0.62;0.00;0.00;0.62;1.70;1.27;;;25.30;19.80;;;;;;2260422;61;20388;-63
2022/04/19 09:43:43;0.00;0.00;0.62;0.00;0.00;0.62;1.70;1.30;;;25.30;19.90;;;;;;2260426;61;20775;-62
2022/04/19 09:46:29;0.00;0.00;0.62;0.00;0.00;0.62;1.53;1.10;;;25.30;19.90;;;;;;2260509;61;20361;-62
2022/04/19 09:49:14;0.00;0.00;0.62;0.00;0.00;0.62;1.67;1.30;;;25.30;19.90;;;;;;2259704;61;20349;-63
2022/04/19 09:51:58;0.00;0.00;0.62;0.00;0.00;0.62;1.63;1.20;;;25.30;19.90;;;;;;2260744;61;20431;-63
2022/04/19 09:54:44;0.00;0.00;0.62;0.00;0.00;0.62;1.60;1.20;;;25.40;19.90;;;;;;2260384;61;20516;-63
2022/04/19 09:57:30;0.00;0.00;0.62;0.00;0.00;0.62;1.90;1.50;;;25.40;20.50;;;;;;2256028;61;20365;-63
2022/04/19 10:00:19;0.00;0.00;0.62;0.00;0.00;0.62;1.90;1.30;;;25.40;19.90;;;;;;2257137;61;20770;-62
2022/04/19 10:09:13;0.00;0.00;0.62;0.00;0.00;0.62;1.77;1.20;;;25.40;19.90;;;;;;2259748;61;20379;-62
2022/04/19 10:11:59;0.00;0.00;0.62;0.00;0.00;0.62;1.47;1.00;;;25.50;20.00;;;;;;2259723;61;20928;-62
2022/04/19 10:14:46;0.00;0.00;0.62;0.00;0.00;0.62;1.70;1.03;;;25.50;20.00;;;;;;2260354;61;20769;-62
2022/04/19 10:17:31;0.00;0.00;0.62;0.00;0.00;0.62;1.30;0.90;;;25.50;20.00;;;;;;2260649;61;20403;-67
2022/04/19 10:20:31;0.00;0.00;0.62;0.00;0.00;0.62;2.30;1.37;;;25.50;20.00;;;;;;2256535;61;20368;-63
2022/04/19 10:23:16;0.00;0.00;0.62;0.00;0.00;0.62;1.87;1.00;;;25.50;20.00;;;;;;2260199;61;20897;-63
2022/04/19 10:26:13;0.00;0.00;0.62;0.00;0.00;0.62;2.03;1.40;;;25.50;20.00;;;;;;2260030;61;20844;-64
2022/04/19 10:29:14;0.00;0.00;0.62;0.00;0.00;0.62;1.70;1.00;;;25.60;20.00;;;;;;2259978;61;20418;-64
2022/04/19 10:32:01;0.00;0.00;0.62;0.00;0.00;0.62;1.70;1.07;;;25.60;20.00;;;;;;2260558;61;21076;-68
2022/04/19 10:34:59;0.00;0.00;0.62;0.00;0.00;0.62;1.63;1.00;;;25.60;20.00;;;;;;2259903;61;20361;-63
2022/04/19 10:37:49;0.00;0.00;0.62;0.00;0.00;0.62;1.53;1.07;;;25.60;20.00;;;;;;2260331;61;20445;-63
2022/04/19 10:40:54;0.00;0.00;0.62;0.00;0.00;0.62;1.70;1.10;;;25.70;20.10;;;;;;2260137;61;20385;-62
2022/04/19 10:43:38;0.00;0.00;0.62;0.00;0.00;0.62;1.43;0.90;;;25.70;20.10;;;;;;2260547;61;20392;-62
2022/04/19 10:46:23;0.00;0.00;0.62;0.00;0.00;0.62;1.50;1.10;;;25.70;20.10;;;;;;2260514;61;20345;-63
2022/04/19 10:49:23;0.00;0.00;0.62;0.00;0.00;0.62;1.40;0.93;;;25.70;20.10;;;;;;2259485;61;20449;-62
2022/04/19 10:52:46;0.00;0.00;0.62;0.00;0.00;0.62;1.57;1.17;;;25.80;20.10;;;;;;2257039;61;20376;-63
2022/04/19 10:55:31;0.00;0.00;0.62;0.00;0.00;0.62;1.67;1.00;;;25.80;20.20;;;;;;2260144;61;20373;-66
2022/04/19 10:58:17;0.00;0.00;0.62;0.00;0.00;0.62;1.70;1.10;;;25.80;20.20;;;;;;2260142;61;20988;-63
2022/04/19 11:01:02;0.00;0.00;0.62;0.00;0.00;0.62;1.80;1.00;;;25.80;20.10;;;;;;2260359;61;20419;-64
2022/04/19 11:03:49;0.00;0.00;0.62;0.00;0.00;0.62;1.37;0.93;;;25.90;20.20;;;;;;2259797;61;20762;-63
2022/04/19 11:06:37;0.00;0.00;0.62;0.00;0.00;0.62;1.70;0.90;;;25.90;20.20;;;;;;2260271;61;20352;-62
2022/04/19 11:09:26;0.00;0.00;0.62;0.00;0.00;0.62;1.40;0.90;;;25.90;20.20;;;;;;2260880;61;20341;-62
2022/04/19 11:12:11;0.00;0.00;0.62;0.00;0.00;0.62;2.37;0.90;;;25.90;20.20;;;;;;2260792;61;20799;-63
2022/04/19 11:15:34;0.00;0.00;0.62;0.00;0.00;0.62;1.40;0.90;;;26.00;20.20;;;;;;2260796;61;20364;-61
2022/04/19 11:18:22;0.00;0.00;0.62;0.00;0.00;0.62;1.40;0.97;;;26.00;20.20;;;;;;2260470;61;20384;-63
2022/04/19 11:21:11;0.00;0.00;0.62;0.00;0.00;0.62;1.70;1.10;;;26.00;20.20;;;;;;2260765;61;20439;-63
2022/04/19 11:23:55;0.00;0.00;0.62;0.00;0.00;0.62;1.40;0.90;;;26.10;20.30;;;;;;2261161;61;20453;-63
2022/04/19 11:26:42;0.00;0.00;0.62;0.00;0.00;0.62;1.53;0.90;;;26.10;20.20;;;;;;2260648;61;20368;-63
2022/04/19 11:29:27;0.00;0.00;0.62;0.00;0.00;0.62;1.33;0.93;;;26.10;20.20;;;;;;2260653;61;20415;-63
2022/04/19 11:32:11;0.00;0.00;0.62;0.00;0.00;0.62;1.50;0.90;;;26.20;20.20;;;;;;2260597;61;20484;-62
2022/04/19 11:35:04;0.00;0.00;0.62;0.00;0.00;0.62;1.30;0.80;;;26.20;20.30;;;;;;2260972;61;20499;-63